Woodland, Iowa
Current Conditions -  °F | °C
As of 12:53 PM on Tuesday 21 Oct 2014 (Local Time) from KLWD Reporting Station
Clear Clear  
Wind Chill: 67°   Ceiling: Unl
Heat Index: 67°   Visibility: 10mi
Dew Point: 46°   Wind: 3mph
Humidity: 47%   Direction: 110°ESE
Pressure: 30.13"   Gusts: NA
Location:  40.7175°N, 93.6143°W
Report Text: KLWD 211753Z AUTO 11003KT 10SM CLR 19/08 A3013 RMK AO2 SLP201 T01940078 10200 20056 58007
Loading
Personal Weather Stations






























Interactive Weather Map
Tropical Storm Tracking
New forecast layout! Learn more

10-Day Weather Forecast

Advertisements
Track Severe Weather on mobile